• Join FlightAware (Why Join?)
  • Login
  • US Flag 
11:50PM EDT


 

Airport Tracker/Info


-or-


 

Live Flight TrackerFlight Track Log ✈ SKW6534 ✈ 30-Apr-2013 ✈ KDEN - KIDA

Flight Track Log - Related Links

Times and Time Zones

All times are in EDT time to prevent confusion due to time zone crossing. See the SKW6534 flight status page for this flight to view local times or setup timezone preferences in your user account.

Time Position Orientation Groundspeed Altitude Reporting Facility
EDT Latitude Longitude Course Direction KTS MPH feet Rate Location/Type
01:32PM 39.9167 -104.6833 346° North 176 203 6,700  Level Denver TRACON
01:33PM 39.9833 -104.6667 11° North 259 298 8,500 2,100 Climbing Denver TRACON
01:33PM 40.0500 -104.6667 360° North 285 328 10,700 2,160 Climbing Denver TRACON
01:34PM 40.1418 -104.7637 344° North  Level FlightAware Approximate
01:35PM 40.2398 -104.7936 347° North  Level FlightAware Approximate
01:35PM 40.1458 -104.6819 353° North 307 353 12,900  Level Denver Center
01:36PM 40.3377 -104.8237 346° North  Level FlightAware Approximate
01:36PM 40.2350 -104.7064 348° North 324 373 14,900  Level Denver Center
01:37PM 40.4352 -104.8562 346° North  Level FlightAware Approximate
01:37PM 40.3297 -104.7294 349° North 344 396 16,900  Level Denver Center
01:38PM 40.4294 -104.7564 348° North 340 391 19,200 1,620 Climbing Denver Center
01:39PM 40.5239 -104.7806 349° North 346 398 20,600 1,080 Climbing Denver Center
01:40PM 40.6461 -104.8150 348° North 369 425 21,800 1,260 Climbing Denver Center
01:41PM 40.7578 -104.8400 350° North 361 415 23,300 1,200 Climbing Denver Center
01:42PM 40.8536 -104.8822 342° North 370 426 24,400 1,020 Climbing Denver Center
01:43PM 40.9508 -104.9292 340° North 381 438 25,500 900 Climbing Denver Center
01:44PM 41.0669 -104.9872 339° North 395 455 26,300 660 Climbing Denver Center
01:45PM 41.1692 -105.0353 341° North 403 464 26,900 600 Climbing Denver Center
01:46PM 41.2569 -105.1508 315° West 393 452 27,700 720 Climbing Denver Center
01:47PM 41.3311 -105.3000 304° West 382 440 28,600 720 Climbing Denver Center
01:48PM 41.3733 -105.4167 296° West 369 425 29,300 600 Climbing Denver Center
01:49PM 41.4153 -105.5344 295° West 366 421 29,900 720 Climbing Denver Center
01:50PM 41.4650 -105.6717 296° West 368 423 30,800 780 Climbing Denver Center
01:51PM 41.5067 -105.7861 296° West 361 415 31,600 540 Climbing Denver Center
01:52PM 41.5544 -105.9231 295° West 363 418 32,000 120 Climbing Denver Center
01:54PM 41.5961 -106.0397 296° West 363 418 32,000  Level Denver Center
01:55PM 41.6506 -106.1947 295° West 362 417 32,000  Level Denver Center
01:56PM 41.6942 -106.3153 296° West 371 427 32,000  Level Denver Center
01:57PM 41.7503 -106.4761 295° West 374 430 32,000  Level Denver Center
01:58PM 41.7950 -106.6047 295° West 376 433 32,000  Level Denver Center
01:59PM 41.8447 -106.7464 295° West 376 433 32,000  Level Denver Center
02:00PM 41.8861 -106.8667 295° West 373 429 32,000  Level Denver Center
02:01PM 41.9350 -107.0086 295° West 375 432 32,000  Level Denver Center
02:02PM 41.9767 -107.1294 295° West 374 430 32,000  Level Denver Center
02:03PM 42.0256 -107.2711 295° West 374 430 32,000  Level Denver Center
02:04PM 42.0647 -107.3917 294° West 370 426 32,000  Level Denver Center
02:05PM 42.1108 -107.5317 294° West 366 421 32,000  Level Denver Center
02:06PM 42.1522 -107.6519 295° West 370 426 32,000  Level Denver Center
02:07PM 42.1978 -107.7925 294° West 367 422 32,000  Level Salt Lake Center
02:08PM 42.2389 -107.9128 295° West 370 426 32,000  Level Salt Lake Center
02:09PM 42.2836 -108.0519 294° West 365 420 32,000  Level Salt Lake Center
02:10PM 42.3236 -108.1708 295° West 365 420 32,000  Level Salt Lake Center
02:12PM 42.3694 -108.3125 294° West 368 423 32,000  Level Salt Lake Center
02:13PM 42.4097 -108.4328 294° West 368 423 32,000  Level Salt Lake Center
02:14PM 42.4536 -108.5736 293° West 366 421 32,000  Level Salt Lake Center
02:15PM 42.4925 -108.6917 294° West 362 417 32,000  Level Salt Lake Center
02:16PM 42.5308 -108.8122 293° West 364 419 32,000  Level Salt Lake Center
02:17PM 42.5764 -108.9547 294° West 368 423 32,000  Level Salt Lake Center
02:18PM 42.6142 -109.0733 293° West 362 417 32,000  Level Salt Lake Center
02:19PM 42.6575 -109.2117 293° West 358 412 32,000  Level Salt Lake Center
02:20PM 42.6953 -109.3308 293° West 360 414 32,000  Level Salt Lake Center
02:21PM 42.7394 -109.4703 293° West 360 414 32,000  Level Salt Lake Center
02:22PM 42.7767 -109.5900 293° West 361 415 32,000  Level Salt Lake Center
02:23PM 42.8197 -109.7303 293° West 362 417 32,000  Level Salt Lake Center
02:24PM 42.8569 -109.8497 293° West 360 414 32,000  Level Salt Lake Center
02:25PM 42.8950 -109.9758 292° West 356 410 32,000  Level Salt Lake Center
02:26PM 42.9375 -110.1125 293° West 351 404 32,000 -480 Level Salt Lake Center
02:27PM 42.9703 -110.2228 292° West 351 404 31,100 -960 Descending Salt Lake Center
02:28PM 43.0092 -110.3508 293° West 356 410 30,100 -1,080 Descending Salt Lake Center
02:29PM 43.0522 -110.4931 293° West 361 415 29,000 -1,080 Descending Salt Lake Center
02:30PM 43.0911 -110.6178 293° West 370 426 28,000 -1,320 Descending Salt Lake Center
02:31PM 43.1344 -110.7631 292° West 370 426 26,300 -1,920 Descending Salt Lake Center
02:32PM 43.1733 -110.8931 292° West 381 438 24,100 -2,340 Descending Salt Lake Center
02:33PM 43.2178 -111.0458 292° West 385 443 21,600 -2,280 Descending Salt Lake Center
02:34PM 43.2536 -111.1697 292° West 374 430 19,400 -2,280 Descending Salt Lake Center
02:35PM 43.2925 -111.3053 292° West 377 434 17,000 -2,280 Descending Salt Lake Center
02:36PM 43.3328 -111.4436 292° West 371 427 14,800 -1,920 Descending Salt Lake Center
02:37PM 43.3647 -111.5506 292° West 347 399 13,100 -1,800 Descending Salt Lake Center
02:38PM 43.3997 -111.6681 292° West 321 369 11,100 -1,800 Descending Salt Lake Center
02:39PM 43.4314 -111.7594 296° West 301 346 9,500 -1,320 Descending Salt Lake Center
02:40PM 43.4794 -111.8408 309° West 265 305 8,500 -780 Descending Salt Lake Center
02:41PM 43.5119 -111.9000 307° West 235 270 7,900 -600 Descending Salt Lake Center